createdAt,value
2023-05-01T00:02:03.441Z,99681.60
2023-05-01T00:04:34.045Z,99678.54
2023-05-01T00:07:02.463Z,99678.05
2023-05-01T00:09:32.568Z,99683.04
2023-05-01T00:12:03.084Z,99679.60
2023-05-01T00:14:31.552Z,99683.06
2023-05-01T00:16:59.797Z,99689.24
2023-05-01T00:19:28.247Z,99687.93
2023-05-01T00:21:56.543Z,99689.07
2023-05-01T00:24:24.716Z,99687.23
2023-05-01T00:27:10.107Z,99691.02
2023-05-01T00:29:45.780Z,99691.06
2023-05-01T00:32:15.459Z,99694.63
2023-05-01T00:34:46.334Z,99691.17
2023-05-01T00:37:15.226Z,99691.25
2023-05-01T00:39:50.013Z,99693.98
2023-05-01T00:42:21.939Z,99689.20
2023-05-01T00:44:52.217Z,99688.96
2023-05-01T00:47:20.609Z,99688.85
2023-05-01T00:49:50.490Z,99691.55
2023-05-01T00:52:19.004Z,99694.91
2023-05-01T00:54:52.276Z,99689.20
2023-05-01T00:57:22.453Z,99694.20
2023-05-01T00:59:50.919Z,99696.50
2023-05-01T01:02:19.170Z,99696.04
2023-05-01T01:04:48.619Z,99695.21
2023-05-01T01:07:54.800Z,99693.88
2023-05-01T01:10:22.981Z,99697.84
2023-05-01T01:12:55.395Z,99697.92
2023-05-01T01:15:33.635Z,99694.48
2023-05-01T01:18:07.934Z,99694.88
2023-05-01T01:20:42.303Z,99695.44
2023-05-01T01:23:47.727Z,99696.36
2023-05-01T01:26:39.495Z,99692.76
2023-05-01T01:29:37.147Z,99694.97
2023-05-01T01:32:20.723Z,99699.94
2023-05-01T01:34:56.797Z,99701.42
2023-05-01T01:37:43.256Z,99704.63
2023-05-01T01:40:18.892Z,99699.27
2023-05-01T01:42:53.218Z,99699.67
2023-05-01T01:45:24.297Z,99702.55
2023-05-01T01:47:54.914Z,99698.95
2023-05-01T01:50:28.186Z,99703.02
2023-05-01T01:53:00.400Z,99698.91
2023-05-01T01:55:31.815Z,99698.61
2023-05-01T01:58:03.191Z,99695.17
2023-05-01T02:00:34.593Z,99694.36
2023-05-01T02:03:03.852Z,99692.48
2023-05-01T02:05:34.589Z,99692.19
2023-05-01T02:08:05.578Z,99686.66
2023-05-01T02:10:35.680Z,99687.73
2023-05-01T02:13:06.001Z,99684.27
2023-05-01T02:15:35.309Z,99684.00
2023-05-01T02:18:06.039Z,99684.94
2023-05-01T02:20:35.169Z,99676.95
2023-05-01T02:23:05.505Z,99680.67
2023-05-01T02:25:39.495Z,99680.42
2023-05-01T02:28:23.257Z,99679.10
2023-05-01T02:30:52.742Z,99678.67
2023-05-01T02:33:22.799Z,99680.17
2023-05-01T02:35:52.169Z,99678.48
2023-05-01T02:38:20.490Z,99675.75
2023-05-01T02:40:52.779Z,99675.45
2023-05-01T02:43:23.519Z,99675.72
2023-05-01T02:45:53.849Z,99673.37
2023-05-01T02:48:27.869Z,99674.54
2023-05-01T02:50:57.317Z,99674.63
2023-05-01T02:53:25.737Z,99677.64
2023-05-01T02:55:58.639Z,99678.56
2023-05-01T02:58:32.732Z,99678.79
2023-05-01T03:01:01.057Z,99682.30
2023-05-01T03:03:29.578Z,99681.80
2023-05-01T03:05:58.754Z,99681.46
2023-05-01T03:08:27.149Z,99680.45
2023-05-01T03:10:55.431Z,99678.02
2023-05-01T03:13:23.641Z,99682.21
2023-05-01T03:15:51.872Z,99681.54
2023-05-01T03:18:22.403Z,99680.02
2023-05-01T03:20:53.630Z,99683.86
2023-05-01T03:23:23.485Z,99679.85
2023-05-01T03:25:51.880Z,99678.08
2023-05-01T03:28:24.412Z,99675.27
2023-05-01T03:30:53.703Z,99671.77
2023-05-01T03:33:22.066Z,99668.96
2023-05-01T03:36:02.751Z,99664.04
2023-05-01T03:38:32.796Z,99663.98
2023-05-01T03:41:13.020Z,99658.70
2023-05-01T03:44:10.442Z,99656.91
2023-05-01T03:46:42.048Z,99654.40
2023-05-01T03:49:17.402Z,99656.45
2023-05-01T03:51:48.230Z,99654.45
2023-05-01T03:54:16.653Z,99652.65
2023-05-01T03:57:11.283Z,99655.54
2023-05-01T03:59:39.798Z,99652.84
2023-05-01T04:02:08.436Z,99653.10
2023-05-01T04:04:37.310Z,99651.04
2023-05-01T04:07:06.071Z,99652.80
2023-05-01T04:09:34.330Z,99653.84
2023-05-01T04:12:02.674Z,99651.94
2023-05-01T04:14:31.389Z,99652.80
2023-05-01T04:17:00.128Z,99654.85
2023-05-01T04:19:29.006Z,99652.38
2023-05-01T04:22:00.117Z,99649.14
2023-05-01T04:24:28.286Z,99647.67
2023-05-01T04:26:56.714Z,99646.88
2023-05-01T04:30:17.223Z,99646.55
2023-05-01T04:32:46.365Z,99644.07
2023-05-01T04:35:15.066Z,99640.87
2023-05-01T04:37:45.202Z,99638.33
2023-05-01T04:40:13.803Z,99638.35
2023-05-01T04:42:44.554Z,99636.59
2023-05-01T04:45:16.294Z,99632.84
2023-05-01T04:47:45.573Z,99633.94
2023-05-01T04:50:14.530Z,99639.58
2023-05-01T04:52:42.802Z,99637.29
2023-05-01T04:55:11.541Z,99634.61
2023-05-01T04:57:46.565Z,99641.22
2023-05-01T05:00:15.122Z,99639.11
2023-05-01T05:02:51.348Z,99635.30
2023-05-01T05:05:19.874Z,99633.24
2023-05-01T05:07:48.610Z,99628.49
2023-05-01T05:10:35.907Z,99625.88
2023-05-01T05:13:27.608Z,99624.34
2023-05-01T05:16:01.886Z,99620.21
2023-05-01T05:18:59.479Z,99619.27
2023-05-01T05:21:31.851Z,99621.00
2023-05-01T05:24:00.478Z,99618.77
2023-05-01T05:26:28.868Z,99619.02
2023-05-01T05:28:59.537Z,99613.55
2023-05-01T05:31:27.889Z,99614.50
2023-05-01T05:33:56.400Z,99612.66
2023-05-01T05:36:25.097Z,99609.24
2023-05-01T05:38:54.280Z,99605.84
2023-05-01T05:41:22.944Z,99611.20
2023-05-01T05:43:54.326Z,99612.85
2023-05-01T05:46:22.727Z,99613.86
2023-05-01T05:48:51.235Z,99613.38
2023-05-01T05:51:19.745Z,99610.82
2023-05-01T05:53:48.266Z,99611.02
2023-05-01T05:56:16.735Z,99609.58
2023-05-01T05:58:46.475Z,99613.26
2023-05-01T06:01:15.115Z,99612.02
2023-05-01T06:03:43.699Z,99610.29
2023-05-01T06:06:12.333Z,99611.73
2023-05-01T06:08:40.839Z,99612.89
2023-05-01T06:11:12.012Z,99612.42
2023-05-01T06:13:40.291Z,99612.54
2023-05-01T06:16:08.724Z,99612.60
2023-05-01T06:18:38.005Z,99613.72
2023-05-01T06:21:07.053Z,99614.17
2023-05-01T06:23:35.757Z,99616.42
2023-05-01T06:26:26.454Z,99613.59
2023-05-01T06:28:55.009Z,99612.81
2023-05-01T06:31:23.506Z,99613.31
2023-05-01T06:33:55.326Z,99616.60
2023-05-01T06:36:29.413Z,99614.10
2023-05-01T06:38:57.851Z,99614.77
2023-05-01T06:41:27.184Z,99615.30
2023-05-01T06:43:55.859Z,99615.09
2023-05-01T06:46:24.159Z,99612.23
2023-05-01T06:48:52.651Z,99611.27
2023-05-01T06:51:20.855Z,99610.54
2023-05-01T06:53:49.162Z,99612.30
2023-05-01T06:56:18.662Z,99609.36
2023-05-01T06:58:46.982Z,99611.69
2023-05-01T07:01:15.966Z,99609.27
2023-05-01T07:03:44.918Z,99606.76
2023-05-01T07:06:13.833Z,99605.55
2023-05-01T07:08:42.651Z,99606.04
2023-05-01T07:11:10.834Z,99604.09
2023-05-01T07:13:39.839Z,99605.34
2023-05-01T07:16:08.383Z,99606.28
2023-05-01T07:18:37.895Z,99602.67
2023-05-01T07:21:10.181Z,99600.65
2023-05-01T07:23:39.137Z,99603.52
2023-05-01T07:26:07.967Z,99600.85
2023-05-01T07:28:36.421Z,99600.36
2023-05-01T07:31:05.818Z,99597.84
2023-05-01T07:33:37.399Z,99594.45
2023-05-01T07:36:06.046Z,99594.38
2023-05-01T07:38:37.380Z,99591.76
2023-05-01T07:41:05.863Z,99595.27
2023-05-01T07:43:35.459Z,99591.18
2023-05-01T07:46:05.760Z,99589.14
2023-05-01T07:48:35.623Z,99589.41
2023-05-01T07:51:05.663Z,99588.33
2023-05-01T07:53:35.236Z,99590.55
2023-05-01T07:56:09.537Z,99592.10
2023-05-01T07:58:38.176Z,99587.77
2023-05-01T08:01:07.208Z,99582.89
2023-05-01T08:03:39.967Z,99581.09
2023-05-01T08:06:12.125Z,99579.16
2023-05-01T08:08:41.933Z,99575.75
2023-05-01T08:11:10.451Z,99572.14
2023-05-01T08:13:39.292Z,99573.02
2023-05-01T08:16:08.094Z,99569.85
2023-05-01T08:18:38.711Z,99572.02
2023-05-01T08:21:12.676Z,99572.61
2023-05-01T08:23:41.269Z,99568.35
2023-05-01T08:26:09.776Z,99572.22
2023-05-01T08:28:39.838Z,99571.91
2023-05-01T08:31:08.514Z,99574.52
2023-05-01T08:33:37.006Z,99571.79
2023-05-01T08:36:06.908Z,99573.52
2023-05-01T08:38:35.319Z,99572.34
2023-05-01T08:41:03.886Z,99572.00
2023-05-01T08:43:33.155Z,99571.32
2023-05-01T08:46:02.043Z,99573.45
2023-05-01T08:48:32.853Z,99568.87
2023-05-01T08:51:04.314Z,99567.95
2023-05-01T08:53:34.273Z,99565.41
2023-05-01T08:56:11.496Z,99566.20
2023-05-01T08:58:40.994Z,99565.25
2023-05-01T09:01:12.485Z,99568.11
2023-05-01T09:03:42.708Z,99563.10
2023-05-01T09:06:12.464Z,99561.60
2023-05-01T09:08:41.770Z,99563.77
2023-05-01T09:11:12.416Z,99560.70
2023-05-01T09:13:43.873Z,99557.52
2023-05-01T09:16:13.539Z,99553.86
2023-05-01T09:18:42.180Z,99549.73
2023-05-01T09:21:16.419Z,99553.34
2023-05-01T09:23:58.667Z,99548.36
2023-05-01T09:26:27.730Z,99548.27
2023-05-01T09:28:58.586Z,99542.89
2023-05-01T09:31:29.320Z,99542.39
2023-05-01T09:34:02.762Z,99539.11
2023-05-01T09:36:33.208Z,99534.35
2023-05-01T09:39:02.441Z,99531.50
2023-05-01T09:41:34.070Z,99532.05
2023-05-01T09:44:03.413Z,99530.16
2023-05-01T09:46:43.210Z,99530.27
2023-05-01T09:49:16.144Z,99523.52
2023-05-01T09:51:45.122Z,99518.09
2023-05-01T09:54:21.464Z,99517.81
2023-05-01T09:56:51.198Z,99512.22
2023-05-01T09:59:21.368Z,99504.66
2023-05-01T10:01:50.859Z,99503.67
2023-05-01T10:04:33.361Z,99501.51
2023-05-01T10:07:14.857Z,99498.13
2023-05-01T10:09:43.368Z,99496.79
2023-05-01T10:12:24.431Z,99494.52
2023-05-01T10:14:54.287Z,99492.01
2023-05-01T10:17:22.960Z,99486.59
2023-05-01T10:20:09.285Z,99484.23
2023-05-01T10:22:41.653Z,99480.23
2023-05-01T10:25:15.195Z,99478.78
2023-05-01T10:27:43.783Z,99475.83
2023-05-01T10:30:12.867Z,99476.81
2023-05-01T10:32:42.578Z,99476.17
2023-05-01T10:35:25.597Z,99471.04
2023-05-01T10:38:02.892Z,99466.69
2023-05-01T10:40:42.090Z,99465.54
2023-05-01T10:43:30.022Z,99462.70
2023-05-01T10:46:10.374Z,99458.18
2023-05-01T10:48:45.098Z,99457.95
2023-05-01T10:51:22.434Z,99452.48
2023-05-01T10:54:16.046Z,99454.41
2023-05-01T10:56:44.651Z,99448.58
2023-05-01T10:59:13.259Z,99452.41
2023-05-01T11:01:54.351Z,99447.89
2023-05-01T11:04:27.815Z,99444.51
2023-05-01T11:07:03.821Z,99446.86
2023-05-01T11:09:59.162Z,99441.80
2023-05-01T11:12:46.213Z,99433.50
2023-05-01T11:15:27.914Z,99430.31
2023-05-01T11:17:57.750Z,99426.30
2023-05-01T11:20:26.279Z,99428.34
2023-05-01T11:22:58.866Z,99423.54
2023-05-01T11:25:31.334Z,99419.82
2023-05-01T11:28:09.412Z,99419.14
2023-05-01T11:30:41.262Z,99419.35
2023-05-01T11:33:10.899Z,99410.75
2023-05-01T11:35:57.943Z,99411.04
2023-05-01T11:38:40.041Z,99413.38
2023-05-01T11:41:19.262Z,99402.35
2023-05-01T11:43:56.919Z,99398.45
2023-05-01T11:46:40.791Z,99397.17
2023-05-01T11:49:12.903Z,99392.73
2023-05-01T11:51:42.466Z,99392.10
2023-05-01T11:54:20.490Z,99383.38
2023-05-01T11:57:05.302Z,99379.55
2023-05-01T12:00:05.503Z,99374.46
2023-05-01T12:02:57.695Z,99367.88
2023-05-01T12:05:28.909Z,99371.00
2023-05-01T12:08:20.741Z,99369.19
2023-05-01T12:10:59.155Z,99366.08
2023-05-01T12:13:28.112Z,99363.13
2023-05-01T12:15:57.838Z,99361.16
2023-05-01T12:18:26.429Z,99358.17
2023-05-01T12:20:55.453Z,99358.51
2023-05-01T12:23:43.154Z,99353.22
2023-05-01T12:26:17.926Z,99350.98
2023-05-01T12:29:09.776Z,99347.65
2023-05-01T12:32:00.953Z,99350.65
2023-05-01T12:34:33.794Z,99357.16
2023-05-01T12:37:03.665Z,99349.99
2023-05-01T12:39:45.006Z,99345.39
2023-05-01T12:42:15.170Z,99336.29
2023-05-01T12:44:44.203Z,99339.50
2023-05-01T12:47:13.309Z,99334.67
2023-05-01T12:49:41.871Z,99334.95
2023-05-01T12:52:10.288Z,99330.80
2023-05-01T12:54:40.876Z,99327.48
2023-05-01T12:57:16.933Z,99321.21
2023-05-01T12:59:47.565Z,99314.48
2023-05-01T13:02:18.535Z,99312.30
2023-05-01T13:04:50.359Z,99311.45
2023-05-01T13:07:19.634Z,99304.95
2023-05-01T13:09:53.784Z,99307.04
2023-05-01T13:12:26.085Z,99305.66
2023-05-01T13:14:59.258Z,99307.77
2023-05-01T13:17:30.508Z,99299.09
2023-05-01T13:20:05.576Z,99295.58
2023-05-01T13:22:36.682Z,99294.30
2023-05-01T13:25:22.154Z,99288.41
2023-05-01T13:28:07.601Z,99290.58
2023-05-01T13:30:39.820Z,99288.12
2023-05-01T13:33:14.409Z,99289.73
2023-05-01T13:35:48.193Z,99284.23
2023-05-01T13:38:19.643Z,99281.21
2023-05-01T13:40:57.096Z,99275.27
2023-05-01T13:43:48.964Z,99272.57
2023-05-01T13:46:21.476Z,99269.31
2023-05-01T13:48:50.994Z,99270.33
2023-05-01T13:51:25.071Z,99264.65
2023-05-01T13:53:56.561Z,99258.44
2023-05-01T13:56:24.990Z,99259.34
2023-05-01T13:59:02.190Z,99260.88
2023-05-01T14:01:40.506Z,99255.11
2023-05-01T14:04:21.899Z,99257.14
2023-05-01T14:07:03.094Z,99255.96
2023-05-01T14:09:40.264Z,99255.02
2023-05-01T14:12:19.909Z,99252.20
2023-05-01T14:15:15.046Z,99245.45
2023-05-01T14:18:20.265Z,99242.67
2023-05-01T14:20:58.842Z,99239.40
2023-05-01T14:26:49.167Z,99227.20
2023-05-01T14:29:24.122Z,99224.46
2023-05-01T14:31:53.040Z,99220.77
2023-05-01T14:34:22.834Z,99218.77
2023-05-01T14:36:51.192Z,99220.14
2023-05-01T14:39:22.080Z,99220.70
2023-05-01T14:41:50.440Z,99218.17
2023-05-01T14:44:20.871Z,99215.18
2023-05-01T14:46:52.032Z,99214.45
2023-05-01T14:49:24.732Z,99210.09
2023-05-01T14:51:54.278Z,99205.21
2023-05-01T14:54:22.636Z,99202.39
2023-05-01T14:56:50.891Z,99203.86
2023-05-01T14:59:19.190Z,99203.61
2023-05-01T15:01:47.640Z,99199.78
2023-05-01T15:04:16.104Z,99197.27
2023-05-01T15:06:44.721Z,99201.17
2023-05-01T15:09:13.650Z,99201.21
2023-05-01T15:11:41.885Z,99198.24
2023-05-01T15:14:10.240Z,99193.13
2023-05-01T15:16:38.630Z,99187.09
2023-05-01T15:19:06.884Z,99184.05
2023-05-01T15:21:37.335Z,99180.13
2023-05-01T15:24:06.062Z,99180.68
2023-05-01T15:26:35.113Z,99180.96
2023-05-01T15:29:05.086Z,99180.23
2023-05-01T15:31:33.536Z,99182.70
2023-05-01T15:34:02.576Z,99179.16
2023-05-01T15:36:33.421Z,99180.83
2023-05-01T15:39:05.778Z,99176.17
2023-05-01T15:41:34.394Z,99172.55
2023-05-01T15:44:03.090Z,99175.55
2023-05-01T15:46:31.823Z,99172.33
2023-05-01T15:49:01.483Z,99166.39
2023-05-01T15:51:33.566Z,99168.13
2023-05-01T15:54:04.007Z,99166.45
2023-05-01T15:56:37.298Z,99166.30
2023-05-01T15:59:07.710Z,99163.34
2023-05-01T16:01:36.061Z,99161.90
2023-05-01T16:04:04.813Z,99160.14
2023-05-01T16:06:35.444Z,99158.91
2023-05-01T16:09:05.165Z,99160.80
2023-05-01T16:11:33.627Z,99163.36
2023-05-01T16:14:01.967Z,99162.46
2023-05-01T16:16:30.487Z,99163.70
2023-05-01T16:19:00.573Z,99160.31
2023-05-01T16:21:28.980Z,99160.51
2023-05-01T16:23:57.484Z,99157.65
2023-05-01T16:26:28.334Z,99154.07
2023-05-01T16:29:00.616Z,99151.08
2023-05-01T16:31:41.162Z,99152.19
2023-05-01T16:34:13.688Z,99155.76
2023-05-01T16:36:42.734Z,99155.67
2023-05-01T16:39:14.398Z,99154.09
2023-05-01T16:41:47.491Z,99155.15
2023-05-01T16:44:18.697Z,99156.30
2023-05-01T16:47:05.761Z,99152.94
2023-05-01T16:49:52.557Z,99150.86
2023-05-01T16:52:25.278Z,99151.48
2023-05-01T16:55:05.021Z,99152.29
2023-05-01T16:57:33.890Z,99151.10
2023-05-01T17:00:02.655Z,99148.79
2023-05-01T17:02:31.589Z,99148.34
2023-05-01T17:05:00.541Z,99148.41
2023-05-01T17:07:30.925Z,99147.82
2023-05-01T17:09:59.522Z,99141.48
2023-05-01T17:12:35.695Z,99141.30
2023-05-01T17:15:09.288Z,99142.85
2023-05-01T17:17:37.817Z,99147.33
2023-05-01T17:20:09.623Z,99147.07
2023-05-01T17:22:40.899Z,99147.96
2023-05-01T17:25:09.714Z,99148.14
2023-05-01T17:27:38.180Z,99145.34
2023-05-01T17:30:09.040Z,99144.19
2023-05-01T17:32:47.022Z,99142.06
2023-05-01T17:35:18.599Z,99138.56
2023-05-01T17:37:51.036Z,99143.19
2023-05-01T17:40:22.385Z,99140.61
2023-05-01T17:42:50.809Z,99136.55
2023-05-01T17:45:22.103Z,99136.36
2023-05-01T17:48:25.957Z,99137.39
2023-05-01T17:50:55.950Z,99137.74
2023-05-01T17:53:33.862Z,99137.24
2023-05-01T17:56:19.597Z,99139.50
2023-05-01T18:02:02.469Z,99135.98
2023-05-01T18:05:41.879Z,99135.64
2023-05-01T18:08:22.031Z,99135.50
2023-05-01T18:10:54.203Z,99137.70
2023-05-01T18:13:37.560Z,99138.23
2023-05-01T18:16:11.993Z,99139.75
2023-05-01T18:18:41.203Z,99140.50
2023-05-01T18:21:09.550Z,99137.14
2023-05-01T18:23:39.257Z,99134.10
2023-05-01T18:26:08.271Z,99138.54
2023-05-01T18:28:39.078Z,99130.92
2023-05-01T18:31:07.585Z,99130.96
2023-05-01T18:33:36.041Z,99132.69
2023-05-01T18:36:04.655Z,99127.34
2023-05-01T18:38:33.203Z,99126.26
2023-05-01T18:41:01.804Z,99128.98
2023-05-01T18:43:32.141Z,99131.79
2023-05-01T18:46:00.474Z,99132.63
2023-05-01T18:48:28.805Z,99131.44
2023-05-01T18:51:08.366Z,99133.58
2023-05-01T18:54:29.817Z,99133.44
2023-05-01T18:56:58.006Z,99131.58
2023-05-01T18:59:30.902Z,99132.07
2023-05-01T19:01:59.179Z,99131.80
2023-05-01T19:04:27.822Z,99132.94
2023-05-01T19:06:56.273Z,99130.91
2023-05-01T19:09:24.648Z,99129.66
2023-05-01T19:11:53.320Z,99129.14
2023-05-01T19:14:21.927Z,99135.20
2023-05-01T19:16:50.576Z,99138.45
2023-05-01T19:19:27.917Z,99137.09
2023-05-01T19:21:56.398Z,99137.42
2023-05-01T19:24:24.971Z,99130.72
2023-05-01T19:26:53.387Z,99130.77
2023-05-01T19:29:21.611Z,99132.05
2023-05-01T19:31:50.322Z,99133.21
2023-05-01T19:34:20.261Z,99130.41
2023-05-01T19:36:49.379Z,99133.25
2023-05-01T19:39:17.627Z,99132.27
2023-05-01T19:41:47.185Z,99132.42
2023-05-01T19:44:18.524Z,99132.81
2023-05-01T19:46:46.937Z,99130.27
2023-05-01T19:49:18.238Z,99128.46
2023-05-01T19:51:46.866Z,99125.86
2023-05-01T19:54:16.489Z,99126.52
2023-05-01T19:56:46.917Z,99128.05
2023-05-01T19:59:15.265Z,99124.38
2023-05-01T20:01:44.902Z,99119.45
2023-05-01T20:04:13.355Z,99114.96
2023-05-01T20:06:41.979Z,99114.10
2023-05-01T20:09:10.397Z,99114.56
2023-05-01T20:11:40.238Z,99110.36
2023-05-01T20:14:08.982Z,99106.14
2023-05-01T20:17:03.278Z,99103.01
2023-05-01T20:19:31.766Z,99101.69
2023-05-01T20:22:00.127Z,99101.38
2023-05-01T20:24:28.507Z,99102.90
2023-05-01T20:26:58.213Z,99105.95
2023-05-01T20:29:27.096Z,99105.73
2023-05-01T20:31:55.836Z,99103.67
2023-05-01T20:34:24.208Z,99101.91
2023-05-01T20:36:52.702Z,99099.28
2023-05-01T20:39:21.002Z,99097.04
2023-05-01T20:41:49.561Z,99096.80
2023-05-01T20:44:17.849Z,99098.45
2023-05-01T20:46:46.854Z,99098.80
2023-05-01T20:49:16.228Z,99100.71
2023-05-01T20:51:44.629Z,99098.92
2023-05-01T20:54:12.965Z,99103.36
2023-05-01T20:56:41.986Z,99101.87
2023-05-01T21:00:02.329Z,99101.25
2023-05-01T21:02:31.429Z,99096.39
2023-05-01T21:04:59.813Z,99095.38
2023-05-01T21:07:30.126Z,99095.32
2023-05-01T21:09:58.621Z,99098.79
2023-05-01T21:12:28.689Z,99098.19
2023-05-01T21:14:57.559Z,99094.54
2023-05-01T21:17:26.875Z,99096.57
2023-05-01T21:19:55.150Z,99099.85
2023-05-01T21:22:23.800Z,99095.80
2023-05-01T21:24:55.085Z,99096.70
2023-05-01T21:27:24.877Z,99095.59
2023-05-01T21:29:57.156Z,99101.17
2023-05-01T21:32:34.858Z,99101.32
2023-05-01T21:35:06.302Z,99097.46
2023-05-01T21:37:34.699Z,99099.56
2023-05-01T21:40:07.607Z,99107.98
2023-05-01T21:42:39.287Z,99107.30
2023-05-01T21:45:15.134Z,99109.41
2023-05-01T21:47:47.877Z,99115.64
2023-05-01T21:50:18.736Z,99119.55
2023-05-01T21:52:49.210Z,99120.70
2023-05-01T21:55:20.732Z,99128.50
2023-05-01T21:57:53.349Z,99132.92
2023-05-01T22:00:22.050Z,99135.04
2023-05-01T22:02:52.396Z,99136.72
2023-05-01T22:05:23.409Z,99137.52
2023-05-01T22:07:52.949Z,99138.48
2023-05-01T22:10:21.349Z,99144.91
2023-05-01T22:12:49.980Z,99144.45
2023-05-01T22:15:18.624Z,99143.35
2023-05-01T22:17:47.042Z,99145.21
2023-05-01T22:20:15.517Z,99145.27
2023-05-01T22:22:43.873Z,99143.85
2023-05-01T22:25:12.196Z,99147.98
2023-05-01T22:27:40.920Z,99145.91
2023-05-01T22:30:09.768Z,99143.14
2023-05-01T22:32:38.124Z,99137.22
2023-05-01T22:35:08.509Z,99137.20
2023-05-01T22:37:36.909Z,99138.42
2023-05-01T22:40:05.862Z,99137.92
2023-05-01T22:42:34.263Z,99137.14
2023-05-01T22:45:02.569Z,99138.85
2023-05-01T22:47:30.903Z,99141.34
2023-05-01T22:49:59.373Z,99143.12
2023-05-01T22:52:27.790Z,99145.48
2023-05-01T22:54:56.186Z,99148.29
2023-05-01T22:57:24.414Z,99145.92
2023-05-01T22:59:52.653Z,99146.53
2023-05-01T23:02:21.518Z,99147.70
2023-05-01T23:04:51.288Z,99150.52
2023-05-01T23:07:19.633Z,99153.09
2023-05-01T23:09:47.917Z,99155.44
2023-05-01T23:12:22.791Z,99153.99
2023-05-01T23:14:51.500Z,99155.30
2023-05-01T23:17:19.849Z,99154.48
2023-05-01T23:19:48.156Z,99156.10
2023-05-01T23:22:18.046Z,99157.08
2023-05-01T23:24:48.606Z,99159.79
2023-05-01T23:27:19.147Z,99160.91
2023-05-01T23:29:59.531Z,99159.48
2023-05-01T23:32:31.324Z,99160.42
2023-05-01T23:35:12.744Z,99155.25
2023-05-01T23:37:41.948Z,99157.60
2023-05-01T23:40:10.507Z,99157.17
2023-05-01T23:42:39.715Z,99157.64
2023-05-01T23:45:08.506Z,99161.39
2023-05-01T23:47:39.045Z,99160.38
2023-05-01T23:50:08.110Z,99161.59
2023-05-01T23:52:36.522Z,99159.71
2023-05-01T23:55:05.104Z,99158.11
2023-05-01T23:57:33.461Z,99161.77
